sensor_id;sensor_type;location;lat;lon;timestamp;P1;durP1;ratioP1;P2;durP2;ratioP2
47021;SDS011;32779;52.264;6.154;2023-04-25T00:01:45;23.60;;;3.72;;
47021;SDS011;32779;52.264;6.154;2023-04-25T00:04:11;20.67;;;3.65;;
47021;SDS011;32779;52.264;6.154;2023-04-25T00:06:37;27.25;;;4.95;;
47021;SDS011;32779;52.264;6.154;2023-04-25T00:09:03;23.63;;;3.63;;
47021;SDS011;32779;52.264;6.154;2023-04-25T00:11:32;20.88;;;3.53;;
47021;SDS011;32779;52.264;6.154;2023-04-25T00:13:58;19.83;;;3.75;;
47021;SDS011;32779;52.264;6.154;2023-04-25T00:16:24;21.17;;;3.70;;
47021;SDS011;32779;52.264;6.154;2023-04-25T00:18:50;23.63;;;4.68;;
47021;SDS011;32779;52.264;6.154;2023-04-25T00:21:18;22.98;;;4.40;;
47021;SDS011;32779;52.264;6.154;2023-04-25T00:23:44;12.40;;;3.13;;
47021;SDS011;32779;52.264;6.154;2023-04-25T00:26:11;18.17;;;3.28;;
47021;SDS011;32779;52.264;6.154;2023-04-25T00:28:36;18.63;;;4.13;;
47021;SDS011;32779;52.264;6.154;2023-04-25T00:31:02;17.30;;;3.75;;
47021;SDS011;32779;52.264;6.154;2023-04-25T00:33:28;15.90;;;3.35;;
47021;SDS011;32779;52.264;6.154;2023-04-25T00:35:55;29.98;;;4.30;;
47021;SDS011;32779;52.264;6.154;2023-04-25T00:38:20;13.85;;;3.40;;
47021;SDS011;32779;52.264;6.154;2023-04-25T00:40:46;22.65;;;4.20;;
47021;SDS011;32779;52.264;6.154;2023-04-25T00:43:12;16.60;;;4.43;;
47021;SDS011;32779;52.264;6.154;2023-04-25T00:45:38;11.60;;;3.15;;
47021;SDS011;32779;52.264;6.154;2023-04-25T00:48:04;19.83;;;4.05;;
47021;SDS011;32779;52.264;6.154;2023-04-25T00:50:32;19.08;;;3.53;;
47021;SDS011;32779;52.264;6.154;2023-04-25T00:52:58;19.27;;;3.75;;
47021;SDS011;32779;52.264;6.154;2023-04-25T00:57:50;16.10;;;3.42;;
47021;SDS011;32779;52.264;6.154;2023-04-25T01:00:16;18.58;;;3.53;;
47021;SDS011;32779;52.264;6.154;2023-04-25T01:02:43;24.05;;;4.30;;
47021;SDS011;32779;52.264;6.154;2023-04-25T01:05:09;16.10;;;3.33;;
47021;SDS011;32779;52.264;6.154;2023-04-25T01:07:36;15.00;;;4.03;;
47021;SDS011;32779;52.264;6.154;2023-04-25T01:10:03;16.85;;;3.45;;
47021;SDS011;32779;52.264;6.154;2023-04-25T01:12:31;12.38;;;3.30;;
47021;SDS011;32779;52.264;6.154;2023-04-25T01:14:57;17.88;;;3.47;;
47021;SDS011;32779;52.264;6.154;2023-04-25T01:17:22;17.25;;;3.42;;
47021;SDS011;32779;52.264;6.154;2023-04-25T01:22:15;14.55;;;3.40;;
47021;SDS011;32779;52.264;6.154;2023-04-25T01:27:07;9.77;;;2.90;;
47021;SDS011;32779;52.264;6.154;2023-04-25T01:31:59;15.35;;;3.38;;
47021;SDS011;32779;52.264;6.154;2023-04-25T01:34:26;17.35;;;3.17;;
47021;SDS011;32779;52.264;6.154;2023-04-25T01:36:51;11.15;;;2.78;;
47021;SDS011;32779;52.264;6.154;2023-04-25T01:39:18;11.45;;;3.28;;
47021;SDS011;32779;52.264;6.154;2023-04-25T01:44:13;20.02;;;3.70;;
47021;SDS011;32779;52.264;6.154;2023-04-25T01:46:40;17.70;;;2.88;;
47021;SDS011;32779;52.264;6.154;2023-04-25T01:49:06;15.77;;;3.70;;
47021;SDS011;32779;52.264;6.154;2023-04-25T01:51:31;10.85;;;2.83;;
47021;SDS011;32779;52.264;6.154;2023-04-25T01:53:57;16.73;;;3.67;;
47021;SDS011;32779;52.264;6.154;2023-04-25T01:56:23;15.43;;;3.42;;
47021;SDS011;32779;52.264;6.154;2023-04-25T01:58:49;13.38;;;3.00;;
47021;SDS011;32779;52.264;6.154;2023-04-25T02:01:14;16.33;;;4.20;;
47021;SDS011;32779;52.264;6.154;2023-04-25T02:03:40;14.10;;;3.80;;
47021;SDS011;32779;52.264;6.154;2023-04-25T02:06:06;13.70;;;3.10;;
47021;SDS011;32779;52.264;6.154;2023-04-25T02:08:31;17.58;;;3.72;;
47021;SDS011;32779;52.264;6.154;2023-04-25T02:10:57;11.23;;;3.22;;
47021;SDS011;32779;52.264;6.154;2023-04-25T02:13:23;15.07;;;3.45;;
47021;SDS011;32779;52.264;6.154;2023-04-25T02:15:48;26.70;;;4.30;;
47021;SDS011;32779;52.264;6.154;2023-04-25T02:18:14;20.75;;;4.00;;
47021;SDS011;32779;52.264;6.154;2023-04-25T02:20:41;18.08;;;4.32;;
47021;SDS011;32779;52.264;6.154;2023-04-25T02:23:07;30.35;;;4.40;;
47021;SDS011;32779;52.264;6.154;2023-04-25T02:25:33;22.40;;;3.90;;
47021;SDS011;32779;52.264;6.154;2023-04-25T02:27:58;18.42;;;4.22;;
47021;SDS011;32779;52.264;6.154;2023-04-25T02:30:24;15.55;;;3.40;;
47021;SDS011;32779;52.264;6.154;2023-04-25T02:32:49;19.13;;;3.90;;
47021;SDS011;32779;52.264;6.154;2023-04-25T02:35:15;17.58;;;3.70;;
47021;SDS011;32779;52.264;6.154;2023-04-25T02:37:41;15.18;;;3.42;;
47021;SDS011;32779;52.264;6.154;2023-04-25T02:40:07;18.08;;;4.05;;
47021;SDS011;32779;52.264;6.154;2023-04-25T02:44:59;17.38;;;3.50;;
47021;SDS011;32779;52.264;6.154;2023-04-25T02:47:24;19.55;;;4.28;;
47021;SDS011;32779;52.264;6.154;2023-04-25T02:49:50;18.23;;;4.20;;
47021;SDS011;32779;52.264;6.154;2023-04-25T02:52:16;20.10;;;4.22;;
47021;SDS011;32779;52.264;6.154;2023-04-25T02:54:41;18.48;;;3.63;;
47021;SDS011;32779;52.264;6.154;2023-04-25T02:57:07;19.42;;;4.00;;
47021;SDS011;32779;52.264;6.154;2023-04-25T02:59:33;19.55;;;4.22;;
47021;SDS011;32779;52.264;6.154;2023-04-25T03:01:58;19.05;;;3.22;;
47021;SDS011;32779;52.264;6.154;2023-04-25T03:04:24;22.13;;;5.05;;
47021;SDS011;32779;52.264;6.154;2023-04-25T03:06:50;14.30;;;3.13;;
47021;SDS011;32779;52.264;6.154;2023-04-25T03:09:16;15.57;;;3.90;;
47021;SDS011;32779;52.264;6.154;2023-04-25T03:11:42;17.95;;;3.80;;
47021;SDS011;32779;52.264;6.154;2023-04-25T03:14:08;11.88;;;3.83;;
47021;SDS011;32779;52.264;6.154;2023-04-25T03:19:00;19.38;;;3.65;;
47021;SDS011;32779;52.264;6.154;2023-04-25T03:21:25;17.58;;;3.33;;
47021;SDS011;32779;52.264;6.154;2023-04-25T03:23:51;20.05;;;3.60;;
47021;SDS011;32779;52.264;6.154;2023-04-25T03:26:17;25.73;;;4.60;;
47021;SDS011;32779;52.264;6.154;2023-04-25T03:28:43;19.70;;;3.67;;
47021;SDS011;32779;52.264;6.154;2023-04-25T03:31:08;16.40;;;3.75;;
47021;SDS011;32779;52.264;6.154;2023-04-25T03:33:34;18.80;;;3.63;;
47021;SDS011;32779;52.264;6.154;2023-04-25T03:35:59;18.75;;;4.00;;
47021;SDS011;32779;52.264;6.154;2023-04-25T03:38:25;14.45;;;3.58;;
47021;SDS011;32779;52.264;6.154;2023-04-25T03:40:51;16.65;;;3.88;;
47021;SDS011;32779;52.264;6.154;2023-04-25T03:43:16;20.70;;;4.90;;
47021;SDS011;32779;52.264;6.154;2023-04-25T03:45:42;18.45;;;3.70;;
47021;SDS011;32779;52.264;6.154;2023-04-25T03:48:08;22.17;;;4.13;;
47021;SDS011;32779;52.264;6.154;2023-04-25T03:50:33;20.15;;;3.63;;
47021;SDS011;32779;52.264;6.154;2023-04-25T03:52:59;22.35;;;4.57;;
47021;SDS011;32779;52.264;6.154;2023-04-25T03:55:25;20.15;;;3.95;;
47021;SDS011;32779;52.264;6.154;2023-04-25T03:57:50;17.63;;;4.45;;
47021;SDS011;32779;52.264;6.154;2023-04-25T04:00:16;24.02;;;3.65;;
47021;SDS011;32779;52.264;6.154;2023-04-25T04:02:42;21.88;;;3.97;;
47021;SDS011;32779;52.264;6.154;2023-04-25T04:05:07;12.73;;;3.17;;
47021;SDS011;32779;52.264;6.154;2023-04-25T04:07:33;13.48;;;3.17;;
47021;SDS011;32779;52.264;6.154;2023-04-25T04:10:04;21.77;;;3.38;;
47021;SDS011;32779;52.264;6.154;2023-04-25T04:12:37;16.83;;;3.03;;
47021;SDS011;32779;52.264;6.154;2023-04-25T04:15:03;10.57;;;3.00;;
47021;SDS011;32779;52.264;6.154;2023-04-25T04:17:30;18.08;;;2.92;;
47021;SDS011;32779;52.264;6.154;2023-04-25T04:19:55;13.32;;;3.10;;
47021;SDS011;32779;52.264;6.154;2023-04-25T04:22:21;13.73;;;3.05;;
47021;SDS011;32779;52.264;6.154;2023-04-25T04:24:47;11.30;;;2.97;;
47021;SDS011;32779;52.264;6.154;2023-04-25T04:27:14;14.43;;;3.17;;
47021;SDS011;32779;52.264;6.154;2023-04-25T04:29:42;13.30;;;2.50;;
47021;SDS011;32779;52.264;6.154;2023-04-25T04:32:08;14.57;;;3.20;;
47021;SDS011;32779;52.264;6.154;2023-04-25T04:34:34;15.35;;;3.05;;
47021;SDS011;32779;52.264;6.154;2023-04-25T04:36:59;13.55;;;3.08;;
47021;SDS011;32779;52.264;6.154;2023-04-25T04:39:25;13.95;;;3.38;;
47021;SDS011;32779;52.264;6.154;2023-04-25T04:41:51;12.82;;;2.78;;
47021;SDS011;32779;52.264;6.154;2023-04-25T04:44:17;15.90;;;3.47;;
47021;SDS011;32779;52.264;6.154;2023-04-25T04:46:42;13.02;;;2.85;;
47021;SDS011;32779;52.264;6.154;2023-04-25T04:49:09;15.25;;;2.80;;
47021;SDS011;32779;52.264;6.154;2023-04-25T04:51:36;9.02;;;3.42;;
47021;SDS011;32779;52.264;6.154;2023-04-25T04:54:02;14.93;;;2.85;;
47021;SDS011;32779;52.264;6.154;2023-04-25T05:01:21;14.00;;;2.90;;
47021;SDS011;32779;52.264;6.154;2023-04-25T05:03:47;14.70;;;3.25;;
47021;SDS011;32779;52.264;6.154;2023-04-25T05:06:12;16.17;;;3.38;;
47021;SDS011;32779;52.264;6.154;2023-04-25T05:08:38;8.65;;;2.80;;
47021;SDS011;32779;52.264;6.154;2023-04-25T05:11:03;18.88;;;3.30;;
47021;SDS011;32779;52.264;6.154;2023-04-25T05:13:29;15.27;;;2.97;;
47021;SDS011;32779;52.264;6.154;2023-04-25T05:15:55;13.63;;;2.55;;
47021;SDS011;32779;52.264;6.154;2023-04-25T05:18:20;11.98;;;3.20;;
47021;SDS011;32779;52.264;6.154;2023-04-25T05:20:46;15.68;;;2.55;;
47021;SDS011;32779;52.264;6.154;2023-04-25T05:23:11;14.20;;;2.63;;
47021;SDS011;32779;52.264;6.154;2023-04-25T05:25:37;20.45;;;3.60;;
47021;SDS011;32779;52.264;6.154;2023-04-25T05:28:03;8.73;;;2.75;;
47021;SDS011;32779;52.264;6.154;2023-04-25T05:30:29;17.75;;;3.33;;
47021;SDS011;32779;52.264;6.154;2023-04-25T05:32:55;12.40;;;2.63;;
47021;SDS011;32779;52.264;6.154;2023-04-25T05:35:21;13.25;;;3.45;;
47021;SDS011;32779;52.264;6.154;2023-04-25T05:37:46;12.73;;;2.28;;
47021;SDS011;32779;52.264;6.154;2023-04-25T05:40:12;13.02;;;2.13;;
47021;SDS011;32779;52.264;6.154;2023-04-25T05:42:37;12.07;;;2.55;;
47021;SDS011;32779;52.264;6.154;2023-04-25T05:45:03;8.75;;;2.00;;
47021;SDS011;32779;52.264;6.154;2023-04-25T05:49:55;12.20;;;1.85;;
47021;SDS011;32779;52.264;6.154;2023-04-25T05:52:20;20.42;;;2.42;;
47021;SDS011;32779;52.264;6.154;2023-04-25T05:54:46;17.45;;;2.80;;
47021;SDS011;32779;52.264;6.154;2023-04-25T05:57:19;12.93;;;2.20;;
47021;SDS011;32779;52.264;6.154;2023-04-25T06:02:14;11.85;;;2.15;;
47021;SDS011;32779;52.264;6.154;2023-04-25T06:04:39;11.05;;;2.50;;
47021;SDS011;32779;52.264;6.154;2023-04-25T06:07:05;13.70;;;2.20;;
47021;SDS011;32779;52.264;6.154;2023-04-25T06:09:31;10.45;;;2.58;;
47021;SDS011;32779;52.264;6.154;2023-04-25T06:11:56;12.98;;;2.70;;
47021;SDS011;32779;52.264;6.154;2023-04-25T06:14:22;7.50;;;1.80;;
47021;SDS011;32779;52.264;6.154;2023-04-25T06:16:47;7.78;;;2.03;;
47021;SDS011;32779;52.264;6.154;2023-04-25T06:19:13;16.20;;;2.20;;
47021;SDS011;32779;52.264;6.154;2023-04-25T06:21:38;10.63;;;2.25;;
47021;SDS011;32779;52.264;6.154;2023-04-25T06:24:04;10.30;;;1.88;;
47021;SDS011;32779;52.264;6.154;2023-04-25T06:26:30;9.35;;;2.13;;
47021;SDS011;32779;52.264;6.154;2023-04-25T06:28:55;11.55;;;3.10;;
47021;SDS011;32779;52.264;6.154;2023-04-25T06:31:21;11.27;;;2.08;;
47021;SDS011;32779;52.264;6.154;2023-04-25T06:33:46;12.10;;;1.65;;
47021;SDS011;32779;52.264;6.154;2023-04-25T06:36:13;10.48;;;2.08;;
47021;SDS011;32779;52.264;6.154;2023-04-25T06:38:39;15.18;;;2.78;;
47021;SDS011;32779;52.264;6.154;2023-04-25T06:41:04;7.88;;;2.33;;
47021;SDS011;32779;52.264;6.154;2023-04-25T06:43:30;11.27;;;2.17;;
47021;SDS011;32779;52.264;6.154;2023-04-25T06:45:58;9.23;;;2.90;;
47021;SDS011;32779;52.264;6.154;2023-04-25T06:48:24;11.80;;;2.20;;
47021;SDS011;32779;52.264;6.154;2023-04-25T06:50:51;13.63;;;2.97;;
47021;SDS011;32779;52.264;6.154;2023-04-25T06:53:17;12.82;;;2.22;;
47021;SDS011;32779;52.264;6.154;2023-04-25T06:58:08;10.85;;;2.63;;
47021;SDS011;32779;52.264;6.154;2023-04-25T07:00:34;13.30;;;2.20;;
47021;SDS011;32779;52.264;6.154;2023-04-25T07:03:01;9.98;;;1.88;;
47021;SDS011;32779;52.264;6.154;2023-04-25T07:05:27;20.30;;;2.17;;
47021;SDS011;32779;52.264;6.154;2023-04-25T07:07:52;11.52;;;2.35;;
47021;SDS011;32779;52.264;6.154;2023-04-25T07:10:18;14.63;;;2.42;;
47021;SDS011;32779;52.264;6.154;2023-04-25T07:12:43;18.08;;;1.92;;
47021;SDS011;32779;52.264;6.154;2023-04-25T07:15:09;18.13;;;2.20;;
47021;SDS011;32779;52.264;6.154;2023-04-25T07:17:36;10.35;;;2.25;;
47021;SDS011;32779;52.264;6.154;2023-04-25T07:20:03;12.40;;;2.67;;
47021;SDS011;32779;52.264;6.154;2023-04-25T07:22:31;11.68;;;2.30;;
47021;SDS011;32779;52.264;6.154;2023-04-25T07:24:57;11.25;;;2.42;;
47021;SDS011;32779;52.264;6.154;2023-04-25T07:27:22;10.98;;;2.05;;
47021;SDS011;32779;52.264;6.154;2023-04-25T07:29:48;11.50;;;2.08;;
47021;SDS011;32779;52.264;6.154;2023-04-25T07:32:13;13.13;;;2.55;;
47021;SDS011;32779;52.264;6.154;2023-04-25T07:34:39;10.15;;;1.83;;
47021;SDS011;32779;52.264;6.154;2023-04-25T07:37:06;15.45;;;2.15;;
47021;SDS011;32779;52.264;6.154;2023-04-25T07:39:32;15.13;;;2.33;;
47021;SDS011;32779;52.264;6.154;2023-04-25T07:41:57;13.85;;;1.75;;
47021;SDS011;32779;52.264;6.154;2023-04-25T07:44:26;9.85;;;2.28;;
47021;SDS011;32779;52.264;6.154;2023-04-25T07:46:52;10.15;;;1.73;;
47021;SDS011;32779;52.264;6.154;2023-04-25T07:49:18;10.02;;;1.60;;
47021;SDS011;32779;52.264;6.154;2023-04-25T07:51:43;16.10;;;1.90;;
47021;SDS011;32779;52.264;6.154;2023-04-25T07:54:10;9.32;;;1.90;;
47021;SDS011;32779;52.264;6.154;2023-04-25T07:56:40;8.57;;;1.38;;
47021;SDS011;32779;52.264;6.154;2023-04-25T07:59:05;7.32;;;1.30;;
47021;SDS011;32779;52.264;6.154;2023-04-25T08:01:31;3.55;;;0.90;;
47021;SDS011;32779;52.264;6.154;2023-04-25T08:03:57;6.57;;;1.02;;
47021;SDS011;32779;52.264;6.154;2023-04-25T08:06:22;6.53;;;1.63;;
47021;SDS011;32779;52.264;6.154;2023-04-25T08:08:48;4.95;;;1.30;;
47021;SDS011;32779;52.264;6.154;2023-04-25T08:11:13;3.63;;;0.82;;
47021;SDS011;32779;52.264;6.154;2023-04-25T08:13:39;6.25;;;1.10;;
47021;SDS011;32779;52.264;6.154;2023-04-25T08:16:04;7.55;;;2.00;;
47021;SDS011;32779;52.264;6.154;2023-04-25T08:18:30;2.80;;;0.80;;
47021;SDS011;32779;52.264;6.154;2023-04-25T08:20:56;4.90;;;1.10;;
47021;SDS011;32779;52.264;6.154;2023-04-25T08:23:21;8.88;;;1.30;;
47021;SDS011;32779;52.264;6.154;2023-04-25T08:25:47;8.45;;;1.30;;
47021;SDS011;32779;52.264;6.154;2023-04-25T08:28:12;5.70;;;1.10;;
47021;SDS011;32779;52.264;6.154;2023-04-25T08:30:40;6.55;;;1.08;;
47021;SDS011;32779;52.264;6.154;2023-04-25T08:33:06;6.07;;;1.20;;
47021;SDS011;32779;52.264;6.154;2023-04-25T08:35:32;7.03;;;1.27;;
47021;SDS011;32779;52.264;6.154;2023-04-25T08:37:58;1.40;;;0.73;;
47021;SDS011;32779;52.264;6.154;2023-04-25T08:40:24;4.28;;;1.00;;
47021;SDS011;32779;52.264;6.154;2023-04-25T08:42:55;6.13;;;1.05;;
47021;SDS011;32779;52.264;6.154;2023-04-25T08:45:26;3.70;;;1.10;;
47021;SDS011;32779;52.264;6.154;2023-04-25T08:47:53;2.97;;;1.10;;
47021;SDS011;32779;52.264;6.154;2023-04-25T08:50:22;6.13;;;1.42;;
47021;SDS011;32779;52.264;6.154;2023-04-25T08:52:48;8.70;;;1.30;;
47021;SDS011;32779;52.264;6.154;2023-04-25T08:55:17;11.75;;;1.38;;
47021;SDS011;32779;52.264;6.154;2023-04-25T08:57:44;9.65;;;1.30;;
47021;SDS011;32779;52.264;6.154;2023-04-25T09:00:10;6.53;;;1.55;;
47021;SDS011;32779;52.264;6.154;2023-04-25T09:02:38;6.95;;;1.58;;
47021;SDS011;32779;52.264;6.154;2023-04-25T09:05:04;5.38;;;1.50;;
47021;SDS011;32779;52.264;6.154;2023-04-25T09:07:31;5.40;;;1.00;;
47021;SDS011;32779;52.264;6.154;2023-04-25T09:12:26;1.83;;;0.93;;
47021;SDS011;32779;52.264;6.154;2023-04-25T09:15:14;4.68;;;0.88;;
47021;SDS011;32779;52.264;6.154;2023-04-25T09:17:41;2.00;;;0.40;;
47021;SDS011;32779;52.264;6.154;2023-04-25T09:20:10;1.52;;;0.50;;
47021;SDS011;32779;52.264;6.154;2023-04-25T09:22:37;3.92;;;1.27;;
47021;SDS011;32779;52.264;6.154;2023-04-25T09:25:04;3.33;;;0.50;;
47021;SDS011;32779;52.264;6.154;2023-04-25T09:27:37;3.28;;;0.50;;
47021;SDS011;32779;52.264;6.154;2023-04-25T09:30:18;3.75;;;0.65;;
47021;SDS011;32779;52.264;6.154;2023-04-25T09:32:44;3.88;;;1.27;;
47021;SDS011;32779;52.264;6.154;2023-04-25T09:35:10;3.20;;;0.85;;
47021;SDS011;32779;52.264;6.154;2023-04-25T09:37:47;4.88;;;0.80;;
47021;SDS011;32779;52.264;6.154;2023-04-25T09:40:13;5.65;;;0.90;;
47021;SDS011;32779;52.264;6.154;2023-04-25T09:42:40;7.13;;;1.10;;
47021;SDS011;32779;52.264;6.154;2023-04-25T09:45:06;4.13;;;0.77;;
47021;SDS011;32779;52.264;6.154;2023-04-25T09:47:32;7.60;;;1.40;;
47021;SDS011;32779;52.264;6.154;2023-04-25T09:50:02;8.50;;;1.45;;
47021;SDS011;32779;52.264;6.154;2023-04-25T09:52:28;7.03;;;1.60;;
47021;SDS011;32779;52.264;6.154;2023-04-25T09:54:55;7.90;;;1.50;;
47021;SDS011;32779;52.264;6.154;2023-04-25T09:57:22;6.88;;;1.30;;
47021;SDS011;32779;52.264;6.154;2023-04-25T09:59:49;6.45;;;1.48;;
47021;SDS011;32779;52.264;6.154;2023-04-25T10:02:17;8.25;;;1.40;;
47021;SDS011;32779;52.264;6.154;2023-04-25T10:04:50;7.95;;;1.73;;
47021;SDS011;32779;52.264;6.154;2023-04-25T10:07:19;11.75;;;1.70;;
47021;SDS011;32779;52.264;6.154;2023-04-25T10:09:48;9.45;;;1.27;;
47021;SDS011;32779;52.264;6.154;2023-04-25T10:12:17;7.07;;;1.45;;
47021;SDS011;32779;52.264;6.154;2023-04-25T10:17:10;7.80;;;1.17;;
47021;SDS011;32779;52.264;6.154;2023-04-25T10:19:39;14.48;;;2.00;;
47021;SDS011;32779;52.264;6.154;2023-04-25T10:22:08;10.20;;;1.60;;
47021;SDS011;32779;52.264;6.154;2023-04-25T10:24:39;8.85;;;1.10;;
47021;SDS011;32779;52.264;6.154;2023-04-25T10:27:06;9.93;;;1.80;;
47021;SDS011;32779;52.264;6.154;2023-04-25T10:31:58;8.20;;;1.55;;
47021;SDS011;32779;52.264;6.154;2023-04-25T10:34:25;7.18;;;1.55;;
47021;SDS011;32779;52.264;6.154;2023-04-25T10:37:04;6.18;;;1.20;;
47021;SDS011;32779;52.264;6.154;2023-04-25T10:39:33;8.43;;;1.48;;
47021;SDS011;32779;52.264;6.154;2023-04-25T10:41:59;10.05;;;1.55;;
47021;SDS011;32779;52.264;6.154;2023-04-25T10:44:27;7.55;;;1.05;;
47021;SDS011;32779;52.264;6.154;2023-04-25T10:46:57;8.65;;;1.73;;
47021;SDS011;32779;52.264;6.154;2023-04-25T10:49:48;6.18;;;1.25;;
47021;SDS011;32779;52.264;6.154;2023-04-25T10:54:55;4.32;;;1.15;;
47021;SDS011;32779;52.264;6.154;2023-04-25T10:59:54;7.45;;;1.40;;
47021;SDS011;32779;52.264;6.154;2023-04-25T11:02:25;9.88;;;1.50;;
47021;SDS011;32779;52.264;6.154;2023-04-25T11:04:53;6.15;;;1.08;;
47021;SDS011;32779;52.264;6.154;2023-04-25T11:07:37;6.25;;;1.15;;
47021;SDS011;32779;52.264;6.154;2023-04-25T11:10:14;13.98;;;1.50;;
47021;SDS011;32779;52.264;6.154;2023-04-25T11:12:40;8.82;;;1.98;;
47021;SDS011;32779;52.264;6.154;2023-04-25T11:15:06;10.27;;;1.10;;
47021;SDS011;32779;52.264;6.154;2023-04-25T11:17:33;9.65;;;1.27;;
47021;SDS011;32779;52.264;6.154;2023-04-25T11:19:58;6.75;;;1.10;;
47021;SDS011;32779;52.264;6.154;2023-04-25T11:22:25;8.95;;;1.02;;
47021;SDS011;32779;52.264;6.154;2023-04-25T11:24:52;7.10;;;1.40;;
47021;SDS011;32779;52.264;6.154;2023-04-25T11:27:18;4.45;;;0.93;;
47021;SDS011;32779;52.264;6.154;2023-04-25T11:29:44;8.23;;;1.25;;
47021;SDS011;32779;52.264;6.154;2023-04-25T11:34:35;8.68;;;1.17;;
47021;SDS011;32779;52.264;6.154;2023-04-25T11:37:01;8.45;;;1.23;;
47021;SDS011;32779;52.264;6.154;2023-04-25T11:39:27;6.75;;;1.02;;
47021;SDS011;32779;52.264;6.154;2023-04-25T11:41:54;7.15;;;0.98;;
47021;SDS011;32779;52.264;6.154;2023-04-25T11:44:20;8.13;;;1.70;;
47021;SDS011;32779;52.264;6.154;2023-04-25T11:46:46;6.65;;;1.00;;
47021;SDS011;32779;52.264;6.154;2023-04-25T11:49:13;6.13;;;1.13;;
47021;SDS011;32779;52.264;6.154;2023-04-25T11:51:40;10.68;;;1.00;;
47021;SDS011;32779;52.264;6.154;2023-04-25T11:54:06;9.98;;;1.73;;
47021;SDS011;32779;52.264;6.154;2023-04-25T11:56:32;8.68;;;1.30;;
47021;SDS011;32779;52.264;6.154;2023-04-25T11:59:02;11.10;;;1.88;;
47021;SDS011;32779;52.264;6.154;2023-04-25T12:01:29;6.88;;;1.17;;
47021;SDS011;32779;52.264;6.154;2023-04-25T12:04:09;5.35;;;1.33;;
47021;SDS011;32779;52.264;6.154;2023-04-25T12:06:55;8.55;;;1.27;;
47021;SDS011;32779;52.264;6.154;2023-04-25T12:09:24;5.93;;;1.08;;
47021;SDS011;32779;52.264;6.154;2023-04-25T12:11:54;7.90;;;1.20;;
47021;SDS011;32779;52.264;6.154;2023-04-25T12:14:22;8.50;;;1.20;;
47021;SDS011;32779;52.264;6.154;2023-04-25T12:16:49;7.18;;;1.58;;
47021;SDS011;32779;52.264;6.154;2023-04-25T12:19:16;4.80;;;1.00;;
47021;SDS011;32779;52.264;6.154;2023-04-25T12:21:43;5.45;;;0.98;;
47021;SDS011;32779;52.264;6.154;2023-04-25T12:24:13;5.30;;;0.82;;
47021;SDS011;32779;52.264;6.154;2023-04-25T12:29:22;3.67;;;0.63;;
47021;SDS011;32779;52.264;6.154;2023-04-25T12:31:49;3.15;;;0.68;;
47021;SDS011;32779;52.264;6.154;2023-04-25T12:34:16;6.22;;;1.10;;
47021;SDS011;32779;52.264;6.154;2023-04-25T12:36:45;5.70;;;1.13;;
47021;SDS011;32779;52.264;6.154;2023-04-25T12:39:29;7.38;;;1.10;;
47021;SDS011;32779;52.264;6.154;2023-04-25T12:41:54;6.70;;;1.23;;
47021;SDS011;32779;52.264;6.154;2023-04-25T12:44:20;8.60;;;1.40;;
47021;SDS011;32779;52.264;6.154;2023-04-25T12:49:12;8.50;;;1.25;;
47021;SDS011;32779;52.264;6.154;2023-04-25T12:51:37;5.95;;;1.00;;
47021;SDS011;32779;52.264;6.154;2023-04-25T12:54:04;4.10;;;0.98;;
47021;SDS011;32779;52.264;6.154;2023-04-25T12:56:32;10.65;;;1.00;;
47021;SDS011;32779;52.264;6.154;2023-04-25T12:58:58;6.45;;;0.90;;
47021;SDS011;32779;52.264;6.154;2023-04-25T13:01:24;7.47;;;1.15;;
47021;SDS011;32779;52.264;6.154;2023-04-25T13:03:50;5.55;;;0.90;;
47021;SDS011;32779;52.264;6.154;2023-04-25T13:06:16;10.02;;;1.45;;
47021;SDS011;32779;52.264;6.154;2023-04-25T13:08:42;5.25;;;1.05;;
47021;SDS011;32779;52.264;6.154;2023-04-25T13:11:08;5.50;;;1.10;;
47021;SDS011;32779;52.264;6.154;2023-04-25T13:13:34;4.55;;;0.95;;
47021;SDS011;32779;52.264;6.154;2023-04-25T13:16:03;4.72;;;1.05;;
47021;SDS011;32779;52.264;6.154;2023-04-25T13:18:30;4.63;;;1.05;;
47021;SDS011;32779;52.264;6.154;2023-04-25T13:23:22;5.25;;;1.30;;
47021;SDS011;32779;52.264;6.154;2023-04-25T13:28:14;5.55;;;1.23;;
47021;SDS011;32779;52.264;6.154;2023-04-25T13:33:05;5.57;;;0.93;;
47021;SDS011;32779;52.264;6.154;2023-04-25T13:35:31;5.20;;;1.25;;
47021;SDS011;32779;52.264;6.154;2023-04-25T13:37:59;4.88;;;0.98;;
47021;SDS011;32779;52.264;6.154;2023-04-25T13:40:25;7.55;;;1.13;;
47021;SDS011;32779;52.264;6.154;2023-04-25T13:42:52;3.67;;;1.10;;
47021;SDS011;32779;52.264;6.154;2023-04-25T13:45:17;5.13;;;0.98;;
47021;SDS011;32779;52.264;6.154;2023-04-25T13:50:09;6.45;;;1.27;;
47021;SDS011;32779;52.264;6.154;2023-04-25T13:52:35;5.57;;;1.00;;
47021;SDS011;32779;52.264;6.154;2023-04-25T13:55:01;5.90;;;1.15;;
47021;SDS011;32779;52.264;6.154;2023-04-25T13:57:30;4.68;;;1.30;;
47021;SDS011;32779;52.264;6.154;2023-04-25T13:59:56;7.18;;;1.02;;
47021;SDS011;32779;52.264;6.154;2023-04-25T14:02:21;4.85;;;1.00;;
47021;SDS011;32779;52.264;6.154;2023-04-25T14:04:48;7.15;;;0.95;;
47021;SDS011;32779;52.264;6.154;2023-04-25T14:07:14;5.90;;;1.30;;
47021;SDS011;32779;52.264;6.154;2023-04-25T14:09:42;4.50;;;0.70;;
47021;SDS011;32779;52.264;6.154;2023-04-25T14:12:08;4.63;;;1.13;;
47021;SDS011;32779;52.264;6.154;2023-04-25T14:14:34;3.05;;;0.88;;
47021;SDS011;32779;52.264;6.154;2023-04-25T14:17:00;8.00;;;1.15;;
47021;SDS011;32779;52.264;6.154;2023-04-25T14:19:25;4.50;;;0.80;;
47021;SDS011;32779;52.264;6.154;2023-04-25T14:21:51;8.25;;;1.00;;
47021;SDS011;32779;52.264;6.154;2023-04-25T14:24:17;8.75;;;1.05;;
47021;SDS011;32779;52.264;6.154;2023-04-25T14:26:43;10.57;;;1.75;;
47021;SDS011;32779;52.264;6.154;2023-04-25T14:29:09;8.95;;;1.23;;
47021;SDS011;32779;52.264;6.154;2023-04-25T14:31:37;8.05;;;1.23;;
47021;SDS011;32779;52.264;6.154;2023-04-25T14:34:04;9.07;;;0.93;;
47021;SDS011;32779;52.264;6.154;2023-04-25T14:36:30;8.25;;;1.80;;
47021;SDS011;32779;52.264;6.154;2023-04-25T14:41:22;6.22;;;0.95;;
47021;SDS011;32779;52.264;6.154;2023-04-25T14:46:14;9.63;;;1.35;;
47021;SDS011;32779;52.264;6.154;2023-04-25T14:48:40;3.38;;;1.40;;
47021;SDS011;32779;52.264;6.154;2023-04-25T14:51:07;8.40;;;1.23;;
47021;SDS011;32779;52.264;6.154;2023-04-25T14:53:32;5.13;;;1.20;;
47021;SDS011;32779;52.264;6.154;2023-04-25T14:55:58;13.27;;;1.67;;
47021;SDS011;32779;52.264;6.154;2023-04-25T14:58:23;8.77;;;1.55;;
47021;SDS011;32779;52.264;6.154;2023-04-25T15:00:49;7.32;;;1.10;;
47021;SDS011;32779;52.264;6.154;2023-04-25T15:05:41;6.47;;;1.30;;
47021;SDS011;32779;52.264;6.154;2023-04-25T15:08:07;6.40;;;1.10;;
47021;SDS011;32779;52.264;6.154;2023-04-25T15:10:33;10.10;;;1.02;;
47021;SDS011;32779;52.264;6.154;2023-04-25T15:12:59;5.70;;;1.30;;
47021;SDS011;32779;52.264;6.154;2023-04-25T15:15:25;4.85;;;1.00;;
47021;SDS011;32779;52.264;6.154;2023-04-25T15:17:51;10.00;;;2.13;;
47021;SDS011;32779;52.264;6.154;2023-04-25T15:20:19;5.68;;;0.90;;
47021;SDS011;32779;52.264;6.154;2023-04-25T15:22:45;6.03;;;1.05;;
47021;SDS011;32779;52.264;6.154;2023-04-25T15:25:13;4.72;;;1.15;;
47021;SDS011;32779;52.264;6.154;2023-04-25T15:30:08;6.32;;;1.10;;
47021;SDS011;32779;52.264;6.154;2023-04-25T15:32:36;4.68;;;1.00;;
47021;SDS011;32779;52.264;6.154;2023-04-25T15:35:02;8.27;;;2.00;;
47021;SDS011;32779;52.264;6.154;2023-04-25T15:37:29;4.78;;;1.00;;
47021;SDS011;32779;52.264;6.154;2023-04-25T15:40:16;9.05;;;1.17;;
47021;SDS011;32779;52.264;6.154;2023-04-25T15:42:42;4.70;;;1.05;;
47021;SDS011;32779;52.264;6.154;2023-04-25T15:45:12;5.47;;;0.90;;
47021;SDS011;32779;52.264;6.154;2023-04-25T15:47:39;3.92;;;1.15;;